Time;durP1;ratioP1;P1;durP2;ratioP2;P2;SDS_P1;SDS_P2;PMS_P1;PMS_P2;Temp;Humidity;BMP_temperature;BMP_pressure;BME280_temperature;BME280_humidity;BME280_pressure;Samples;Min_cycle;Max_cycle;Signal;HPM_P1;HPM_P2
2022/05/11 00:01:12;;;;;;;4.10;2.78;;;;;;;18.49;52.14;99914.25;10468478;28;20044;-84
2022/05/11 00:06:14;;;;;;;3.78;3.33;;;;;;;18.66;51.29;99917.50;10473029;28;20028;-84
2022/05/11 00:11:16;;;;;;;3.67;2.85;;;;;;;18.60;51.63;99907.28;10586539;28;20036;-84
2022/05/11 00:16:18;;;;;;;2.67;2.47;;;;;;;18.67;51.00;99918.34;10451833;28;20108;-84
2022/05/11 00:21:20;;;;;;;3.00;2.70;;;;;;;18.53;51.39;99907.78;10462959;28;20066;-84
2022/05/11 00:26:21;;;;;;;2.92;2.72;;;;;;;18.56;51.41;99905.75;10535640;28;20622;-85
2022/05/11 00:31:24;;;;;;;6.10;2.70;;;;;;;18.91;49.48;99907.91;10467854;28;20071;-85
2022/05/11 00:36:25;;;;;;;3.03;2.60;;;;;;;19.11;48.95;99902.03;10469599;28;20096;-84
2022/05/11 00:41:27;;;;;;;2.78;2.58;;;;;;;19.30;48.16;99906.06;10468518;28;20116;-84
2022/05/11 00:46:42;;;;;;;2.67;2.47;;;;;;;19.36;48.10;99890.53;10557950;28;20051;-84
2022/05/11 00:51:47;;;;;;;3.30;2.55;;;;;;;19.30;47.87;99893.63;10536586;28;20048;-85
2022/05/11 00:56:53;;;;;;;6.15;3.08;;;;;;;19.31;48.03;99892.66;10535799;28;20043;-84
2022/05/11 01:01:59;;;;;;;3.05;2.72;;;;;;;19.31;48.19;99889.16;10554885;28;20084;-84
2022/05/11 01:07:01;;;;;;;3.20;2.60;;;;;;;19.23;48.66;99880.84;10466732;28;20125;-84
2022/05/11 01:12:09;;;;;;;3.08;2.70;;;;;;;19.02;49.12;99886.69;10465617;28;20501;-84
2022/05/11 01:17:11;;;;;;;2.42;2.22;;;;;;;18.77;49.99;99887.53;10541485;28;20055;-84
2022/05/11 01:22:37;;;;;;;3.25;2.55;;;;;;;18.89;49.69;99878.69;10483028;28;20052;-84
2022/05/11 01:27:43;;;;;;;4.17;3.10;;;;;;;18.69;50.67;99875.66;10466785;28;20044;-84
2022/05/11 01:32:50;;;;;;;2.75;2.55;;;;;;;18.53;50.91;99867.84;10583098;28;20028;-84
2022/05/11 01:38:10;;;;;;;3.58;2.75;;;;;;;18.71;50.63;99869.28;10505278;28;20052;-84
2022/05/11 01:43:20;;;;;;;3.05;2.85;;;;;;;18.84;49.99;99864.84;10491918;28;20043;-84
2022/05/11 01:48:23;;;;;;;3.80;2.72;;;;;;;18.69;50.78;99865.00;10495080;28;20027;-84
2022/05/11 01:53:25;;;;;;;3.72;3.42;;;;;;;18.61;50.89;99866.38;10494691;28;20024;-84
2022/05/11 01:58:29;;;;;;;3.17;2.88;;;;;;;18.54;50.91;99864.22;10594909;28;20080;-83
2022/05/11 02:03:31;;;;;;;3.53;2.88;;;;;;;18.45;51.39;99859.53;10590299;22;20055;-79
2022/05/11 02:08:34;;;;;;;2.85;2.65;;;;;;;18.44;51.39;99856.00;10492660;28;20048;-80
2022/05/11 02:13:36;;;;;;;3.30;2.90;;;;;;;18.43;51.62;99856.13;10494195;28;20494;-80
2022/05/11 02:18:38;;;;;;;3.17;2.80;;;;;;;18.46;51.49;99856.78;10575686;28;20101;-79
2022/05/11 02:23:40;;;;;;;2.92;2.72;;;;;;;18.38;51.54;99856.44;10575874;28;20048;-78
2022/05/11 02:28:41;;;;;;;4.95;3.35;;;;;;;18.32;51.90;99856.81;10569270;28;20073;-78
2022/05/11 02:33:43;;;;;;;8.63;2.90;;;;;;;18.31;52.09;99858.63;10490920;28;20139;-78
2022/05/11 02:38:46;;;;;;;4.05;2.75;;;;;;;18.52;50.89;99853.69;10576699;28;20044;-77
2022/05/11 02:43:47;;;;;;;3.35;3.10;;;;;;;18.82;50.21;99850.78;10470851;28;20382;-79
2022/05/11 02:48:49;;;;;;;3.58;2.80;;;;;;;18.98;49.44;99866.53;10552542;28;20048;-79
2022/05/11 02:53:50;;;;;;;2.75;2.55;;;;;;;19.14;49.24;99855.69;10554533;28;20082;-80
2022/05/11 02:58:52;;;;;;;2.47;2.28;;;;;;;19.12;49.30;99850.47;10554015;28;20055;-80
2022/05/11 03:03:53;;;;;;;4.70;2.80;;;;;;;19.21;49.20;99853.44;10554825;28;20070;-80
2022/05/11 03:08:55;;;;;;;4.57;2.88;;;;;;;19.12;49.45;99852.25;10554018;28;20054;-79
2022/05/11 03:13:56;;;;;;;3.22;2.80;;;;;;;19.01;49.10;99849.50;10553894;28;20046;-80
2022/05/11 03:19:01;;;;;;;3.05;2.72;;;;;;;19.03;49.71;99848.41;10552596;28;20074;-80
2022/05/11 03:24:03;;;;;;;3.05;2.85;;;;;;;18.89;50.30;99851.19;10553448;28;20093;-80
2022/05/11 03:29:05;;;;;;;3.15;2.85;;;;;;;18.97;50.39;99845.34;10553256;28;20048;-80
2022/05/11 03:39:27;;;;;;;4.25;3.55;;;;;;;18.89;50.71;99843.22;10549805;28;20516;-79
2022/05/11 03:44:29;;;;;;;4.05;3.08;;;;;;;18.88;51.35;99841.50;10550898;28;20040;-80
2022/05/11 03:49:30;;;;;;;3.92;3.15;;;;;;;18.87;51.16;99845.13;10552206;28;20166;-79
2022/05/11 03:54:32;;;;;;;3.20;3.00;;;;;;;18.94;51.15;99845.56;10463698;28;20040;-80
2022/05/11 03:59:34;;;;;;;4.53;3.50;;;;;;;18.82;51.66;99840.13;10559085;28;20093;-80
2022/05/11 04:04:35;;;;;;;3.85;3.53;;;;;;;18.82;51.64;99841.94;10567524;28;20112;-80
2022/05/11 04:09:37;;;;;;;3.45;3.15;;;;;;;18.88;51.71;99853.00;10570014;28;20096;-79
2022/05/11 04:14:38;;;;;;;3.35;3.08;;;;;;;18.87;51.97;99846.00;10584982;28;20040;-78
2022/05/11 04:19:40;;;;;;;3.47;3.28;;;;;;;18.98;52.11;99853.22;10496572;28;20044;-80
2022/05/11 04:24:42;;;;;;;3.60;3.35;;;;;;;18.92;52.60;99852.81;10556916;28;20044;-82
2022/05/11 04:29:43;;;;;;;4.47;3.97;;;;;;;18.84;52.92;99851.50;10554194;28;20413;-80
2022/05/11 04:34:45;;;;;;;4.10;3.67;;;;;;;18.79;53.19;99863.44;10452869;28;20048;-80
2022/05/11 04:39:46;;;;;;;3.53;3.33;;;;;;;18.91;53.07;99851.97;10554564;28;20040;-80
2022/05/11 04:44:48;;;;;;;4.25;3.60;;;;;;;18.96;52.91;99857.81;10552832;28;20036;-79
2022/05/11 04:49:52;;;;;;;7.95;3.20;;;;;;;18.92;53.55;99859.00;10553718;28;20044;-81
2022/05/11 04:54:53;;;;;;;3.50;3.20;;;;;;;19.08;53.64;99862.31;10555761;28;20028;-80
2022/05/11 04:59:56;;;;;;;5.13;3.60;;;;;;;19.24;52.93;99863.88;10554900;28;20115;-80
2022/05/11 05:04:59;;;;;;;4.03;3.30;;;;;;;19.30;52.22;99863.44;10468595;28;20040;-80
2022/05/11 05:10:03;;;;;;;5.25;3.40;;;;;;;19.44;52.33;99865.16;10561243;28;20497;-81
2022/05/11 05:15:05;;;;;;;3.40;3.20;;;;;;;19.50;51.79;99870.03;10560475;28;20098;-79
2022/05/11 05:20:10;;;;;;;4.60;3.20;;;;;;;19.65;51.95;99874.28;10474055;28;20181;-78
2022/05/11 05:25:12;;;;;;;4.03;3.42;;;;;;;19.81;51.41;99864.22;10560490;28;20486;-79
2022/05/11 05:35:54;;;;;;;3.47;2.63;;;;;;;20.61;50.75;99872.53;10350190;28;20100;-78
2022/05/11 05:40:55;;;;;;;3.50;2.83;;;;;;;20.64;49.93;99876.78;10359887;28;20069;-78
2022/05/11 05:45:57;;;;;;;3.55;2.70;;;;;;;20.72;49.84;99871.72;10336898;28;20050;-79
2022/05/11 05:51:04;;;;;;;3.63;3.10;;;;;;;21.06;48.41;99871.78;10350961;28;20051;-79
2022/05/11 05:56:07;;;;;;;2.90;2.70;;;;;;;21.29;48.17;99870.81;10185252;29;20052;-79
2022/05/11 06:01:08;;;;;;;5.53;3.03;;;;;;;21.55;48.24;99875.94;10184369;29;20052;-81
2022/05/11 06:06:11;;;;;;;3.78;2.58;;;;;;;21.92;47.79;99872.03;10434553;28;20117;-80
2022/05/11 06:11:13;;;;;;;3.30;2.72;;;;;;;22.10;47.09;99861.63;10561156;28;20051;-81
2022/05/11 06:16:16;;;;;;;2.58;2.33;;;;;;;22.41;46.45;99867.16;10563695;28;20052;-79
2022/05/11 06:21:18;;;;;;;6.97;2.63;;;;;;;22.94;46.17;99868.97;10585979;28;20074;-79
2022/05/11 06:26:19;;;;;;;4.15;2.53;;;;;;;23.46;44.11;99864.41;10586448;28;20040;-78
2022/05/11 06:31:22;;;;;;;4.45;2.30;;;;;;;23.36;44.75;99864.38;10469075;28;20052;-80
2022/05/11 06:36:24;;;;;;;3.35;2.20;;;;;;;23.13;45.04;99863.72;10566353;28;20057;-79
2022/05/11 06:41:27;;;;;;;5.78;2.30;;;;;;;23.20;45.18;99872.06;10481726;28;20150;-78
2022/05/11 06:46:29;;;;;;;5.88;1.90;;;;;;;23.27;44.73;99871.41;10569966;28;20044;-79
2022/05/11 06:51:31;;;;;;;3.25;2.35;;;;;;;23.34;45.32;99869.91;10460851;28;20051;-80
2022/05/11 07:01:59;;;;;;;5.15;2.78;;;;;;;23.43;44.20;99873.59;10556792;28;20359;-79
2022/05/11 07:07:02;;;;;;;3.00;2.70;;;;;;;23.48;43.95;99867.81;10474069;28;20474;-82
2022/05/11 07:12:31;;;;;;;3.45;2.20;;;;;;;23.40;44.48;99863.13;10557411;28;20498;-81
2022/05/11 07:17:35;;;;;;;3.22;1.95;;;;;;;23.29;44.46;99863.25;10557855;28;20074;-81
2022/05/11 07:22:38;;;;;;;4.95;2.30;;;;;;;23.57;44.17;99862.50;10560006;28;20069;-79
2022/05/11 07:27:42;;;;;;;3.65;2.20;;;;;;;23.86;42.87;99859.06;10557908;28;20078;-80
2022/05/11 07:32:44;;;;;;;3.05;1.92;;;;;;;24.24;43.17;99855.59;10561018;28;20044;-79
2022/05/11 07:37:47;;;;;;;3.60;2.45;;;;;;;24.44;42.71;99845.75;10562000;28;20055;-80
2022/05/11 07:42:50;;;;;;;3.78;2.25;;;;;;;24.71;43.11;99838.78;10559839;28;20097;-79
2022/05/11 07:47:52;;;;;;;3.22;2.40;;;;;;;24.70;42.82;99835.22;10561278;28;20120;-80
2022/05/11 07:52:54;;;;;;;3.47;2.17;;;;;;;24.44;42.48;99831.44;10564600;28;20086;-79
2022/05/11 08:03:18;;;;;;;3.22;2.08;;;;;;;24.95;42.71;99825.69;10594480;22;20078;-82
2022/05/11 08:08:20;;;;;;;2.22;2.08;;;;;;;25.54;42.54;99818.25;10478272;28;20048;-83
2022/05/11 08:13:24;;;;;;;2.75;2.08;;;;;;;26.12;40.84;99824.16;10496310;28;20079;-82
2022/05/11 08:18:37;;;;;;;2.33;2.20;;;;;;;26.28;39.01;99826.16;10475572;28;20044;-82
2022/05/11 08:23:46;;;;;;;6.30;2.60;;;;;;;25.83;38.34;99826.22;10558119;28;20047;-82
2022/05/11 08:28:55;;;;;;;2.83;1.73;;;;;;;25.67;38.96;99822.28;10453581;28;20043;-82
2022/05/11 08:33:57;;;;;;;2.03;1.80;;;;;;;25.83;37.76;99813.59;10540534;28;20035;-83
2022/05/11 08:40:08;;;;;;;2.50;2.00;;;;;;;26.36;37.24;99812.75;10485378;28;20036;-82
2022/05/11 08:45:16;;;;;;;4.28;1.65;;;;;;;26.64;37.09;99810.81;10506005;28;20036;-83
2022/05/11 08:51:01;;;;;;;2.17;1.70;;;;;;;26.47;36.18;99805.44;10475988;28;20108;-83
2022/05/11 08:56:11;;;;;;;3.78;1.55;;;;;;;26.11;36.44;99798.22;10479518;28;20501;-82
2022/05/11 09:01:21;;;;;;;6.65;1.80;;;;;;;26.52;36.43;99801.31;10482858;28;20054;-83
2022/05/11 09:06:28;;;;;;;3.67;1.70;;;;;;;26.66;35.24;99798.03;10468905;28;20032;-83
2022/05/11 09:11:43;;;;;;;3.22;1.35;;;;;;;27.14;35.81;99802.06;10470358;28;20101;-84
2022/05/11 09:16:53;;;;;;;2.95;1.60;;;;;;;27.47;34.91;99802.19;10489796;28;20098;-83
2022/05/11 09:22:26;;;;;;;24.08;2.55;;;;;;;26.80;35.27;99803.84;10502735;28;20061;-82
2022/05/11 09:27:36;;;;;;;1.73;1.55;;;;;;;26.67;36.38;99802.41;10585283;28;20040;-84
2022/05/11 09:32:42;;;;;;;2.05;1.60;;;;;;;26.72;35.69;99806.50;10475968;28;20059;-83
2022/05/11 09:38:11;;;;;;;3.65;1.50;;;;;;;26.67;36.39;99798.88;10505126;28;20115;-83
2022/05/11 09:43:50;;;;;;;3.17;1.60;;;;;;;27.02;35.37;99789.81;10510721;28;20031;-83
2022/05/11 09:49:04;;;;;;;;;;;;;;;27.03;35.73;99783.41;10595876;28;20064;-84
2022/05/11 09:54:16;;;;;;;2.60;1.52;;;;;;;27.82;34.17;99778.72;10508065;28;19945;-84
2022/05/11 09:59:30;;;;;;;1.83;1.50;;;;;;;28.38;33.37;99772.53;10505159;28;20052;-82
2022/05/11 10:04:50;;;;;;;8.82;1.80;;;;;;;28.66;33.79;99775.72;10499331;28;20055;-85
2022/05/11 10:10:08;;;;;;;2.65;1.75;;;;;;;28.88;32.05;99754.38;10564035;28;20077;-85
2022/05/11 10:27:28;;;;;;;2.28;1.60;;;;;;;28.86;32.04;99750.97;10498368;28;20044;-85
2022/05/11 10:32:46;;;;;;;7.25;1.70;;;;;;;28.72;31.68;99749.81;10380316;28;20091;-84
2022/05/11 10:38:21;;;;;;;4.35;1.58;;;;;;;29.31;31.33;99741.38;10403354;28;20042;-84
2022/05/11 10:43:40;;;;;;;3.55;1.67;;;;;;;28.86;30.54;99737.44;10408100;28;20064;-84
2022/05/11 10:49:34;;;;;;;5.13;1.70;;;;;;;28.56;31.82;99725.53;10416270;28;20062;-84
2022/05/11 10:55:25;;;;;;;3.88;1.42;;;;;;;28.97;30.84;99729.00;10399913;28;20053;-84
2022/05/11 11:00:47;;;;;;;2.83;1.60;;;;;;;29.08;30.25;99728.59;10400829;28;20517;-84
2022/05/11 11:12:21;;;;;;;5.00;1.57;;;;;;;29.67;31.31;99698.38;10503580;28;20043;-85
2022/05/11 11:17:51;;;;;;;3.72;1.90;;;;;;;29.71;30.50;99693.44;10495777;28;20052;-85
2022/05/11 11:23:47;;;;;;;;;;;;;;;;;;;;;
2022/05/11 11:28:56;;;;;;;5.32;1.42;;;;;;;29.12;30.38;99691.22;10493835;28;20067;-84
2022/05/11 11:34:06;;;;;;;6.90;1.40;;;;;;;29.23;29.27;99679.16;10472440;28;20064;-83
2022/05/11 11:39:44;;;;;;;2.13;1.38;;;;;;;29.76;29.56;99677.50;10485278;28;20052;-84
2022/05/11 11:44:55;;;;;;;3.78;1.48;;;;;;;30.48;28.97;99667.00;10469125;28;20044;-84
2022/05/11 11:49:58;;;;;;;3.17;1.38;;;;;;;30.33;29.04;99663.47;10482352;28;20086;-84
2022/05/11 11:55:25;;;;;;;4.53;1.60;;;;;;;29.98;30.55;99656.81;10573900;28;20488;-84
2022/05/11 12:01:03;;;;;;;3.45;1.30;;;;;;;29.99;29.87;99655.78;10530452;28;20421;-84
2022/05/11 12:17:49;;;;;;;;;;;;;;;29.59;28.37;99625.31;10489259;28;20079;-84
2022/05/11 12:23:18;;;;;;;7.45;1.52;;;;;;;29.63;29.30;99626.63;10510778;28;19926;-84
2022/05/11 12:28:30;;;;;;;;;;;;;;;29.37;29.21;99606.13;10514307;28;20095;-84
2022/05/11 12:33:58;;;;;;;5.70;1.40;;;;;;;29.21;28.86;99619.78;10513109;28;19911;-84
2022/05/11 12:39:00;;;;;;;9.88;1.40;;;;;;;29.35;28.61;99619.03;10599838;28;20044;-83
2022/05/11 12:44:12;;;;;;;2.10;1.35;;;;;;;29.40;29.87;99607.66;10512837;28;20035;-83
2022/05/11 12:49:20;;;;;;;4.65;1.63;;;;;;;29.39;28.61;99598.66;10512227;28;20050;-84
2022/05/11 12:54:31;;;;;;;14.05;1.90;;;;;;;29.42;28.04;99594.75;10495559;28;20051;-82
2022/05/11 12:59:36;;;;;;;7.18;1.58;;;;;;;29.00;29.25;99587.09;10481953;28;20048;-84
2022/05/11 13:04:51;;;;;;;2.17;1.33;;;;;;;29.19;28.49;99593.91;10487185;28;20083;-84
2022/05/11 13:10:02;;;;;;;4.63;1.33;;;;;;;29.25;28.64;99583.19;10584044;28;20066;-84
2022/05/11 13:15:31;;;;;;;3.45;1.42;;;;;;;29.07;28.73;99569.97;10486475;28;20095;-84
2022/05/11 13:20:45;;;;;;;4.72;1.45;;;;;;;28.97;28.97;99565.81;10493533;28;20044;-83
2022/05/11 13:26:40;;;;;;;1.88;1.30;;;;;;;29.03;29.86;99552.41;10491599;28;20108;-84
2022/05/11 13:31:59;;;;;;;3.88;1.70;;;;;;;29.14;29.81;99551.16;10490201;28;20052;-84
2022/05/11 13:37:30;;;;;;;4.57;1.30;;;;;;;29.18;29.58;99546.22;10489038;28;20044;-84
2022/05/11 13:42:44;;;;;;;1.60;1.45;;;;;;;29.30;29.28;99547.47;10483879;28;20044;-84
2022/05/11 13:48:14;;;;;;;2.47;1.30;;;;;;;29.47;29.24;99535.47;10490656;28;20101;-84
2022/05/11 13:53:33;;;;;;;5.85;1.50;;;;;;;29.27;28.76;99524.34;10469178;28;20131;-83
2022/05/11 13:58:47;;;;;;;;;;;;;;;28.95;29.15;99517.25;10469058;28;20055;-83
2022/05/11 14:03:56;;;;;;;1.77;1.13;;;;;;;28.93;29.40;99508.47;10489586;22;19950;-78
2022/05/11 14:08:58;;;;;;;3.28;1.60;;;;;;;28.91;30.03;99510.53;10559884;28;20036;-78
2022/05/11 14:14:00;;;;;;;6.10;1.63;;;;;;;28.79;29.39;99501.97;10490860;28;20486;-78
2022/05/11 14:19:04;;;;;;;2.42;1.38;;;;;;;28.68;30.58;99494.25;10489634;28;20043;-80
2022/05/11 14:24:07;;;;;;;5.75;1.40;;;;;;;28.87;30.51;99491.13;10478914;28;20040;-79
2022/05/11 14:29:09;;;;;;;2.67;1.38;;;;;;;28.77;29.36;99478.81;10472173;28;20043;-77
2022/05/11 14:34:14;;;;;;;5.70;1.45;;;;;;;28.65;30.23;99484.66;10470862;28;20078;-78
2022/05/11 14:39:20;;;;;;;1.58;1.20;;;;;;;28.75;30.56;99478.19;10478786;28;20051;-78
2022/05/11 14:44:22;;;;;;;1.80;1.40;;;;;;;28.97;29.76;99479.25;10577122;28;20020;-78
2022/05/11 14:49:44;;;;;;;1.67;1.45;;;;;;;28.75;29.93;99473.59;10579723;28;20047;-77
2022/05/11 14:54:46;;;;;;;2.13;1.13;;;;;;;28.80;29.93;99475.78;10496270;28;20451;-78
2022/05/11 15:05:14;;;;;;;2.00;1.35;;;;;;;28.63;29.62;99450.69;10490350;28;20078;-79
2022/05/11 15:10:17;;;;;;;3.30;1.60;;;;;;;28.58;30.29;99453.09;10490542;28;20063;-78
2022/05/11 15:15:19;;;;;;;3.92;1.40;;;;;;;28.50;30.09;99445.03;10491713;28;20047;-77
2022/05/11 15:20:23;;;;;;;4.32;1.52;;;;;;;28.56;29.85;99447.03;10500797;28;20032;-78
2022/05/11 15:25:25;;;;;;;2.05;1.50;;;;;;;28.59;30.81;99442.09;10588623;28;20096;-77
2022/05/11 15:30:27;;;;;;;3.33;1.38;;;;;;;28.37;29.24;99434.78;10582885;28;20100;-77
2022/05/11 15:35:31;;;;;;;7.90;1.55;;;;;;;28.42;29.60;99429.69;10584731;28;20044;-78
2022/05/11 15:40:33;;;;;;;2.85;1.65;;;;;;;28.49;30.90;99441.50;10497487;28;20052;-78
2022/05/11 15:45:37;;;;;;;1.98;1.50;;;;;;;29.24;28.98;99434.53;10494720;28;20078;-77
2022/05/11 15:50:41;;;;;;;1.35;1.20;;;;;;;29.26;29.87;99421.63;10584721;28;20036;-78
2022/05/11 15:55:43;;;;;;;1.90;1.38;;;;;;;29.76;28.81;99425.56;10586699;28;20068;-79
2022/05/11 16:00:44;;;;;;;3.85;1.27;;;;;;;29.47;29.22;99418.22;10484564;28;20032;-80
2022/05/11 16:05:49;;;;;;;2.00;1.33;;;;;;;28.99;30.48;99431.19;10486041;28;20070;-79
2022/05/11 16:10:54;;;;;;;2.22;1.13;;;;;;;28.75;30.60;99424.91;10480257;28;20043;-79
2022/05/11 16:15:56;;;;;;;2.53;1.10;;;;;;;28.37;30.35;99422.13;10475274;28;20070;-80
2022/05/11 16:21:07;;;;;;;5.15;1.20;;;;;;;28.01;30.17;99410.13;10558984;28;20097;-80
2022/05/11 16:26:08;;;;;;;3.63;1.25;;;;;;;27.87;31.23;99425.22;10471105;28;20054;-79
2022/05/11 16:31:10;;;;;;;5.15;1.30;;;;;;;27.94;29.97;99419.97;10477087;28;20044;-79
2022/05/11 16:36:12;;;;;;;9.75;1.70;;;;;;;27.69;30.63;99413.78;10564268;28;20036;-79
2022/05/11 16:41:16;;;;;;;3.22;1.45;;;;;;;27.55;30.46;99405.38;10477462;28;20078;-80
2022/05/11 16:46:17;;;;;;;2.63;1.60;;;;;;;27.39;31.47;99400.84;10477271;28;20052;-79
2022/05/11 16:51:19;;;;;;;5.80;1.40;;;;;;;27.24;31.33;99405.28;10563238;28;20070;-80
2022/05/11 16:56:21;;;;;;;3.88;1.10;;;;;;;27.21;32.77;99411.00;10562611;28;20104;-79
2022/05/11 17:01:26;;;;;;;2.38;1.10;;;;;;;27.07;32.09;99407.13;10471491;28;20105;-80
2022/05/11 17:06:30;;;;;;;1.70;1.05;;;;;;;27.06;32.40;99408.13;10566998;28;20546;-80
2022/05/11 17:11:43;;;;;;;1.83;1.30;;;;;;;27.02;32.15;99409.47;10571775;28;20051;-78
2022/05/11 17:16:45;;;;;;;4.47;1.40;;;;;;;26.68;34.35;99401.56;10480250;28;20040;-79
2022/05/11 17:21:47;;;;;;;2.75;1.33;;;;;;;26.53;33.64;99404.06;10482715;28;20048;-79
2022/05/11 17:26:50;;;;;;;2.00;1.10;;;;;;;26.46;34.02;99397.66;10570305;28;20097;-79
2022/05/11 17:31:52;;;;;;;1.98;1.30;;;;;;;26.27;33.88;99397.94;10569134;28;20044;-79
2022/05/11 17:36:53;;;;;;;3.58;1.30;;;;;;;26.16;34.96;99397.25;10572587;28;20040;-79
2022/05/11 17:41:57;;;;;;;1.73;1.10;;;;;;;25.99;34.46;99400.03;10579447;28;20047;-79
2022/05/11 17:46:59;;;;;;;3.70;1.60;;;;;;;25.97;34.97;99402.03;10475964;28;20047;-79
2022/05/11 17:52:01;;;;;;;4.57;1.33;;;;;;;25.69;35.32;99402.22;10564194;28;20043;-80
2022/05/11 17:57:05;;;;;;;2.80;1.50;;;;;;;25.47;36.42;99408.19;10480767;28;20089;-79
2022/05/11 18:02:06;;;;;;;3.63;1.20;;;;;;;25.31;35.84;99407.06;10566823;28;20095;-79
2022/05/11 18:07:08;;;;;;;2.45;1.45;;;;;;;25.37;36.02;99409.13;10574640;28;20046;-78
2022/05/11 18:12:10;;;;;;;1.80;1.30;;;;;;;25.20;35.95;99403.81;10583546;28;20059;-79
2022/05/11 18:17:11;;;;;;;1.25;1.15;;;;;;;24.95;36.13;99405.41;10568902;28;20048;-80
2022/05/11 18:22:14;;;;;;;3.83;1.40;;;;;;;24.96;35.65;99409.78;10583106;28;20087;-79
2022/05/11 18:27:16;;;;;;;1.80;1.15;;;;;;;24.94;35.12;99401.91;10589594;28;20044;-80
2022/05/11 18:32:18;;;;;;;2.10;1.33;;;;;;;24.89;35.23;99402.34;10500062;28;20055;-79
2022/05/11 18:37:19;;;;;;;4.80;1.52;;;;;;;24.79;35.84;99398.94;10504388;28;20048;-79
2022/05/11 18:42:21;;;;;;;4.38;1.42;;;;;;;24.70;36.12;99396.28;10587712;28;20505;-79
2022/05/11 18:47:26;;;;;;;1.83;1.17;;;;;;;24.26;36.86;99404.22;10502566;28;20136;-78
2022/05/11 18:53:11;;;;;;;2.20;1.20;;;;;;;23.94;37.84;99404.72;10588858;28;20071;-79
2022/05/11 18:58:18;;;;;;;1.80;1.60;;;;;;;23.66;38.63;99410.91;10402310;28;20085;-81
2022/05/11 19:03:23;;;;;;;1.92;1.42;;;;;;;23.49;38.72;99421.53;10398410;28;20054;-79
2022/05/11 19:08:25;;;;;;;1.98;1.50;;;;;;;23.29;38.89;99418.06;10418161;28;20061;-80
2022/05/11 19:13:26;;;;;;;3.13;1.60;;;;;;;23.18;39.58;99427.13;10402810;28;20046;-79
2022/05/11 19:18:28;;;;;;;3.95;1.90;;;;;;;23.17;39.81;99420.91;10400362;28;20054;-79
2022/05/11 19:23:30;;;;;;;4.53;1.90;;;;;;;23.01;40.35;99419.81;10406776;28;20077;-80
2022/05/11 19:28:34;;;;;;;3.20;1.88;;;;;;;22.94;40.46;99426.75;10373991;28;20042;-80
2022/05/11 19:33:38;;;;;;;3.13;2.13;;;;;;;22.72;41.10;99425.16;10454161;28;20052;-80
2022/05/11 19:38:42;;;;;;;4.25;1.90;;;;;;;22.58;41.52;99421.91;10472953;28;20047;-79
2022/05/11 19:44:07;;;;;;;3.00;1.55;;;;;;;22.43;42.13;99417.94;10499599;28;20109;-80
2022/05/11 19:49:09;;;;;;;3.55;2.03;;;;;;;22.51;42.03;99411.91;10556817;28;20047;-79
2022/05/11 19:54:11;;;;;;;2.38;1.60;;;;;;;22.36;42.30;99411.47;10471308;28;20051;-80
2022/05/11 19:59:16;;;;;;;6.10;2.38;;;;;;;22.24;42.42;99408.06;10558768;28;20068;-80
2022/05/11 20:04:20;;;;;;;4.90;2.13;;;;;;;22.13;42.68;99411.72;10456073;28;20421;-82
2022/05/11 20:09:22;;;;;;;3.25;1.95;;;;;;;22.10;42.05;99400.41;10469578;28;20044;-81
2022/05/11 20:14:26;;;;;;;3.08;1.77;;;;;;;21.99;42.24;99404.00;10468074;28;20048;-83
2022/05/11 20:19:28;;;;;;;3.22;2.45;;;;;;;22.19;41.91;99398.75;10554564;28;20531;-82
2022/05/11 20:24:30;;;;;;;2.40;2.20;;;;;;;22.07;42.05;99400.66;10466699;28;20094;-82
2022/05/11 20:29:34;;;;;;;6.72;4.13;;;;;;;21.83;42.37;99399.19;10450185;28;20097;-82
2022/05/11 20:39:56;;;;;;;6.95;4.15;;;;;;;21.74;42.79;99401.84;10469842;28;20482;-81
2022/05/11 20:44:58;;;;;;;4.45;3.25;;;;;;;21.65;43.04;99400.81;10563089;28;20113;-79
2022/05/11 20:50:00;;;;;;;4.28;2.80;;;;;;;21.50;43.56;99407.50;10475466;28;20048;-80
2022/05/11 20:55:02;;;;;;;2.45;2.25;;;;;;;21.41;43.59;99399.28;10461342;28;20080;-80
2022/05/11 21:00:08;;;;;;;2.38;2.00;;;;;;;21.46;43.39;99398.03;10483290;28;20076;-79
2022/05/11 21:05:12;;;;;;;3.67;2.10;;;;;;;21.37;43.50;99395.19;10575386;28;20127;-79
2022/05/11 21:10:17;;;;;;;2.15;1.70;;;;;;;21.47;43.31;99397.94;10493237;28;20055;-78
2022/05/11 21:15:18;;;;;;;1.67;1.55;;;;;;;21.54;43.08;99399.06;10578705;28;20398;-78
2022/05/11 21:20:24;;;;;;;2.15;1.98;;;;;;;21.44;43.61;99392.84;10571169;28;20101;-81
2022/05/11 21:25:25;;;;;;;3.22;1.88;;;;;;;21.44;43.88;99394.66;10456613;28;20494;-81
2022/05/11 21:30:28;;;;;;;1.88;1.50;;;;;;;21.38;44.06;99388.00;10559020;28;20048;-82
2022/05/11 21:35:30;;;;;;;7.32;1.77;;;;;;;21.38;44.19;99385.34;10470454;28;20043;-81
2022/05/11 21:40:31;;;;;;;1.83;1.70;;;;;;;21.27;44.67;99388.06;10472808;28;20047;-82
2022/05/11 21:45:33;;;;;;;3.15;2.00;;;;;;;21.34;44.64;99386.59;10469370;28;20074;-82
2022/05/11 21:50:36;;;;;;;3.67;1.80;;;;;;;21.31;44.97;99382.38;10559902;28;20044;-82
2022/05/11 21:55:38;;;;;;;2.92;2.10;;;;;;;21.44;44.60;99379.47;10558271;28;20105;-81
2022/05/11 22:00:40;;;;;;;2.10;1.90;;;;;;;21.51;44.63;99374.41;10554249;28;20052;-82
2022/05/11 22:05:42;;;;;;;1.98;1.80;;;;;;;21.54;44.52;99383.03;10468505;28;20077;-81
2022/05/11 22:10:44;;;;;;;2.20;2.00;;;;;;;21.59;44.66;99382.63;10467613;28;20409;-83
2022/05/11 22:15:45;;;;;;;3.97;2.22;;;;;;;21.51;44.82;99382.44;10555088;28;20044;-83
2022/05/11 22:20:47;;;;;;;11.10;2.67;;;;;;;21.43;45.03;99391.16;10554270;28;20040;-82
2022/05/11 22:25:49;;;;;;;2.20;2.00;;;;;;;21.32;45.48;99386.72;10467937;28;20064;-81
2022/05/11 22:30:50;;;;;;;4.15;2.10;;;;;;;21.48;44.69;99380.91;10468026;28;20048;-80
2022/05/11 22:35:55;;;;;;;3.20;1.83;;;;;;;21.61;44.35;99380.69;10552735;28;20069;-81
2022/05/11 22:40:58;;;;;;;3.88;2.17;;;;;;;21.71;44.21;99378.03;10554204;28;20107;-81
2022/05/11 22:46:00;;;;;;;1.92;1.77;;;;;;;21.75;43.88;99384.81;10553943;28;20040;-81
2022/05/11 22:51:02;;;;;;;3.90;1.95;;;;;;;22.03;43.38;99389.38;10467187;28;20044;-81
2022/05/11 22:56:05;;;;;;;3.47;2.10;;;;;;;22.10;42.74;99382.50;10557252;28;20405;-81
2022/05/11 23:01:06;;;;;;;2.10;1.88;;;;;;;22.12;43.06;99383.22;10479883;28;20040;-80
2022/05/11 23:06:08;;;;;;;3.40;1.90;;;;;;;22.25;42.48;99377.63;10472730;28;20052;-80
2022/05/11 23:11:09;;;;;;;4.45;1.75;;;;;;;22.20;42.65;99369.16;10556758;28;20059;-79
2022/05/11 23:16:11;;;;;;;1.75;1.60;;;;;;;22.27;42.45;99366.75;10556919;28;20036;-79
2022/05/11 23:21:12;;;;;;;3.10;2.28;;;;;;;22.21;42.47;99370.00;10558527;28;20509;-80
2022/05/11 23:26:14;;;;;;;3.15;1.60;;;;;;;22.31;42.36;99365.50;10476792;28;20048;-78
2022/05/11 23:31:16;;;;;;;4.28;1.88;;;;;;;22.31;42.25;99370.84;10577082;28;20131;-80
2022/05/11 23:36:17;;;;;;;3.08;1.90;;;;;;;22.24;42.40;99373.25;10503296;28;20040;-80
2022/05/11 23:41:19;;;;;;;2.55;1.88;;;;;;;22.18;42.18;99376.50;10498719;28;20051;-80
2022/05/11 23:46:21;;;;;;;6.28;1.85;;;;;;;22.22;42.13;99374.38;10550121;28;20481;-80
2022/05/11 23:51:23;;;;;;;3.55;1.75;;;;;;;22.26;42.17;99375.78;10551013;28;20048;-80
2022/05/11 23:56:24;;;;;;;4.03;1.80;;;;;;;22.23;41.72;99365.38;10549994;28;20115;-80
